sensor_id;sensor_type;location;lat;lon;timestamp;P1;durP1;ratioP1;P2;durP2;ratioP2
83282;SDS011;73190;50.780;5.658;2024-02-14T00:00:21;3.40;;;0.98;;
83282;SDS011;73190;50.780;5.658;2024-02-14T00:02:50;2.47;;;0.90;;
83282;SDS011;73190;50.780;5.658;2024-02-14T00:05:18;4.65;;;1.25;;
83282;SDS011;73190;50.780;5.658;2024-02-14T00:07:45;3.42;;;1.20;;
83282;SDS011;73190;50.780;5.658;2024-02-14T00:10:13;3.00;;;1.60;;
83282;SDS011;73190;50.780;5.658;2024-02-14T00:12:40;2.85;;;1.00;;
83282;SDS011;73190;50.780;5.658;2024-02-14T00:15:08;4.42;;;1.07;;
83282;SDS011;73190;50.780;5.658;2024-02-14T00:17:36;4.90;;;1.00;;
83282;SDS011;73190;50.780;5.658;2024-02-14T00:20:03;2.27;;;1.20;;
83282;SDS011;73190;50.780;5.658;2024-02-14T00:22:31;2.62;;;1.45;;
83282;SDS011;73190;50.780;5.658;2024-02-14T00:24:59;4.20;;;1.20;;
83282;SDS011;73190;50.780;5.658;2024-02-14T00:27:26;5.55;;;1.47;;
83282;SDS011;73190;50.780;5.658;2024-02-14T00:29:54;4.00;;;1.15;;
83282;SDS011;73190;50.780;5.658;2024-02-14T00:32:22;3.27;;;1.00;;
83282;SDS011;73190;50.780;5.658;2024-02-14T00:34:49;5.12;;;1.22;;
83282;SDS011;73190;50.780;5.658;2024-02-14T00:37:18;3.87;;;1.35;;
83282;SDS011;73190;50.780;5.658;2024-02-14T00:39:46;6.62;;;1.20;;
83282;SDS011;73190;50.780;5.658;2024-02-14T00:42:15;4.87;;;1.70;;
83282;SDS011;73190;50.780;5.658;2024-02-14T00:44:43;4.65;;;1.20;;
83282;SDS011;73190;50.780;5.658;2024-02-14T00:47:10;2.83;;;1.05;;
83282;SDS011;73190;50.780;5.658;2024-02-14T00:49:38;3.05;;;1.10;;
83282;SDS011;73190;50.780;5.658;2024-02-14T00:52:05;2.98;;;1.20;;
83282;SDS011;73190;50.780;5.658;2024-02-14T00:54:34;5.92;;;1.47;;
83282;SDS011;73190;50.780;5.658;2024-02-14T00:57:02;3.90;;;1.17;;
83282;SDS011;73190;50.780;5.658;2024-02-14T00:59:30;3.17;;;1.40;;
83282;SDS011;73190;50.780;5.658;2024-02-14T01:01:58;3.95;;;1.30;;
83282;SDS011;73190;50.780;5.658;2024-02-14T01:04:26;3.98;;;1.20;;
83282;SDS011;73190;50.780;5.658;2024-02-14T01:06:53;3.70;;;1.32;;
83282;SDS011;73190;50.780;5.658;2024-02-14T01:09:21;2.62;;;1.00;;
83282;SDS011;73190;50.780;5.658;2024-02-14T01:11:48;2.87;;;1.17;;
83282;SDS011;73190;50.780;5.658;2024-02-14T01:14:16;3.20;;;1.20;;
83282;SDS011;73190;50.780;5.658;2024-02-14T01:16:44;1.90;;;1.00;;
83282;SDS011;73190;50.780;5.658;2024-02-14T01:19:12;3.20;;;1.40;;
83282;SDS011;73190;50.780;5.658;2024-02-14T01:21:40;4.78;;;1.30;;
83282;SDS011;73190;50.780;5.658;2024-02-14T01:24:08;2.80;;;1.55;;
83282;SDS011;73190;50.780;5.658;2024-02-14T01:26:35;5.40;;;2.80;;
83282;SDS011;73190;50.780;5.658;2024-02-14T01:29:03;5.90;;;4.15;;
83282;SDS011;73190;50.780;5.658;2024-02-14T01:31:31;8.43;;;5.30;;
83282;SDS011;73190;50.780;5.658;2024-02-14T01:34:02;9.63;;;5.10;;
83282;SDS011;73190;50.780;5.658;2024-02-14T01:36:30;6.80;;;4.22;;
83282;SDS011;73190;50.780;5.658;2024-02-14T01:38:58;6.55;;;3.17;;
83282;SDS011;73190;50.780;5.658;2024-02-14T01:41:25;4.40;;;1.95;;
83282;SDS011;73190;50.780;5.658;2024-02-14T01:43:53;4.58;;;1.60;;
83282;SDS011;73190;50.780;5.658;2024-02-14T01:46:20;4.78;;;1.40;;
83282;SDS011;73190;50.780;5.658;2024-02-14T01:48:48;3.62;;;1.42;;
83282;SDS011;73190;50.780;5.658;2024-02-14T01:51:15;4.05;;;1.47;;
83282;SDS011;73190;50.780;5.658;2024-02-14T01:53:46;4.70;;;1.55;;
83282;SDS011;73190;50.780;5.658;2024-02-14T01:56:14;2.80;;;1.20;;
83282;SDS011;73190;50.780;5.658;2024-02-14T01:58:41;3.15;;;1.37;;
83282;SDS011;73190;50.780;5.658;2024-02-14T02:01:09;4.35;;;1.37;;
83282;SDS011;73190;50.780;5.658;2024-02-14T02:03:37;3.83;;;1.25;;
83282;SDS011;73190;50.780;5.658;2024-02-14T02:06:06;3.20;;;1.40;;
83282;SDS011;73190;50.780;5.658;2024-02-14T02:08:33;3.17;;;1.62;;
83282;SDS011;73190;50.780;5.658;2024-02-14T02:11:01;4.15;;;1.27;;
83282;SDS011;73190;50.780;5.658;2024-02-14T02:13:29;2.85;;;1.60;;
83282;SDS011;73190;50.780;5.658;2024-02-14T02:15:57;2.72;;;1.52;;
83282;SDS011;73190;50.780;5.658;2024-02-14T02:18:24;5.08;;;1.40;;
83282;SDS011;73190;50.780;5.658;2024-02-14T02:20:52;4.70;;;1.50;;
83282;SDS011;73190;50.780;5.658;2024-02-14T02:23:19;3.10;;;1.70;;
83282;SDS011;73190;50.780;5.658;2024-02-14T02:25:47;3.92;;;1.70;;
83282;SDS011;73190;50.780;5.658;2024-02-14T02:28:16;5.15;;;1.70;;
83282;SDS011;73190;50.780;5.658;2024-02-14T02:30:43;4.87;;;1.65;;
83282;SDS011;73190;50.780;5.658;2024-02-14T02:33:12;3.47;;;1.70;;
83282;SDS011;73190;50.780;5.658;2024-02-14T02:35:41;3.47;;;1.92;;
83282;SDS011;73190;50.780;5.658;2024-02-14T02:38:11;3.12;;;1.50;;
83282;SDS011;73190;50.780;5.658;2024-02-14T02:40:38;5.00;;;1.60;;
83282;SDS011;73190;50.780;5.658;2024-02-14T02:43:06;3.98;;;1.40;;
83282;SDS011;73190;50.780;5.658;2024-02-14T02:45:33;2.83;;;1.50;;
83282;SDS011;73190;50.780;5.658;2024-02-14T02:48:01;4.33;;;1.77;;
83282;SDS011;73190;50.780;5.658;2024-02-14T02:50:28;3.58;;;1.72;;
83282;SDS011;73190;50.780;5.658;2024-02-14T02:52:56;3.85;;;1.92;;
83282;SDS011;73190;50.780;5.658;2024-02-14T02:55:23;2.90;;;1.87;;
83282;SDS011;73190;50.780;5.658;2024-02-14T02:57:52;2.85;;;1.82;;
83282;SDS011;73190;50.780;5.658;2024-02-14T03:00:20;5.03;;;2.67;;
83282;SDS011;73190;50.780;5.658;2024-02-14T03:02:47;3.87;;;1.82;;
83282;SDS011;73190;50.780;5.658;2024-02-14T03:05:15;5.95;;;2.27;;
83282;SDS011;73190;50.780;5.658;2024-02-14T03:07:47;5.62;;;2.27;;
83282;SDS011;73190;50.780;5.658;2024-02-14T03:10:15;7.47;;;2.22;;
83282;SDS011;73190;50.780;5.658;2024-02-14T03:12:49;4.60;;;2.62;;
83282;SDS011;73190;50.780;5.658;2024-02-14T03:15:17;6.03;;;2.50;;
83282;SDS011;73190;50.780;5.658;2024-02-14T03:17:45;5.55;;;2.30;;
83282;SDS011;73190;50.780;5.658;2024-02-14T03:20:13;5.55;;;2.47;;
83282;SDS011;73190;50.780;5.658;2024-02-14T03:22:42;6.35;;;2.33;;
83282;SDS011;73190;50.780;5.658;2024-02-14T03:25:14;4.85;;;2.40;;
83282;SDS011;73190;50.780;5.658;2024-02-14T03:27:46;5.58;;;2.27;;
83282;SDS011;73190;50.780;5.658;2024-02-14T03:30:15;3.75;;;2.40;;
83282;SDS011;73190;50.780;5.658;2024-02-14T03:32:43;5.85;;;2.15;;
83282;SDS011;73190;50.780;5.658;2024-02-14T03:35:11;5.53;;;2.40;;
83282;SDS011;73190;50.780;5.658;2024-02-14T03:37:45;4.12;;;2.30;;
83282;SDS011;73190;50.780;5.658;2024-02-14T03:40:09;7.15;;;2.35;;
83282;SDS011;73190;50.780;5.658;2024-02-14T03:42:37;5.12;;;2.30;;
83282;SDS011;73190;50.780;5.658;2024-02-14T03:45:10;5.00;;;2.35;;
83282;SDS011;73190;50.780;5.658;2024-02-14T03:47:35;4.80;;;2.30;;
83282;SDS011;73190;50.780;5.658;2024-02-14T03:50:04;4.97;;;2.13;;
83282;SDS011;73190;50.780;5.658;2024-02-14T03:52:32;4.62;;;2.27;;
83282;SDS011;73190;50.780;5.658;2024-02-14T03:55:00;4.60;;;1.90;;
83282;SDS011;73190;50.780;5.658;2024-02-14T03:57:28;4.40;;;2.20;;
83282;SDS011;73190;50.780;5.658;2024-02-14T03:59:57;5.30;;;2.30;;
83282;SDS011;73190;50.780;5.658;2024-02-14T04:02:27;3.87;;;2.30;;
83282;SDS011;73190;50.780;5.658;2024-02-14T04:04:55;4.67;;;2.30;;
83282;SDS011;73190;50.780;5.658;2024-02-14T04:07:22;5.28;;;2.20;;
83282;SDS011;73190;50.780;5.658;2024-02-14T04:09:50;4.45;;;1.87;;
83282;SDS011;73190;50.780;5.658;2024-02-14T04:12:17;4.80;;;2.10;;
83282;SDS011;73190;50.780;5.658;2024-02-14T04:14:45;3.92;;;2.20;;
83282;SDS011;73190;50.780;5.658;2024-02-14T04:17:12;4.25;;;2.05;;
83282;SDS011;73190;50.780;5.658;2024-02-14T04:19:40;4.95;;;2.20;;
83282;SDS011;73190;50.780;5.658;2024-02-14T04:22:08;6.40;;;3.00;;
83282;SDS011;73190;50.780;5.658;2024-02-14T04:24:35;4.62;;;2.55;;
83282;SDS011;73190;50.780;5.658;2024-02-14T04:27:04;4.75;;;2.30;;
83282;SDS011;73190;50.780;5.658;2024-02-14T04:29:31;5.15;;;2.27;;
83282;SDS011;73190;50.780;5.658;2024-02-14T04:32:02;4.83;;;2.42;;
83282;SDS011;73190;50.780;5.658;2024-02-14T04:34:31;5.40;;;2.37;;
83282;SDS011;73190;50.780;5.658;2024-02-14T04:36:59;6.80;;;2.90;;
83282;SDS011;73190;50.780;5.658;2024-02-14T04:39:28;4.10;;;2.40;;
83282;SDS011;73190;50.780;5.658;2024-02-14T04:41:55;4.12;;;2.40;;
83282;SDS011;73190;50.780;5.658;2024-02-14T04:44:23;5.97;;;2.90;;
83282;SDS011;73190;50.780;5.658;2024-02-14T04:46:50;6.42;;;3.00;;
83282;SDS011;73190;50.780;5.658;2024-02-14T04:49:18;6.75;;;3.50;;
83282;SDS011;73190;50.780;5.658;2024-02-14T04:51:46;5.62;;;2.67;;
83282;SDS011;73190;50.780;5.658;2024-02-14T04:54:14;5.35;;;2.75;;
83282;SDS011;73190;50.780;5.658;2024-02-14T04:56:42;5.78;;;2.67;;
83282;SDS011;73190;50.780;5.658;2024-02-14T04:59:11;5.78;;;2.90;;
83282;SDS011;73190;50.780;5.658;2024-02-14T05:01:39;3.35;;;2.45;;
83282;SDS011;73190;50.780;5.658;2024-02-14T05:04:06;3.77;;;2.83;;
83282;SDS011;73190;50.780;5.658;2024-02-14T05:06:34;7.70;;;2.70;;
83282;SDS011;73190;50.780;5.658;2024-02-14T05:09:02;6.50;;;2.80;;
83282;SDS011;73190;50.780;5.658;2024-02-14T05:11:29;4.87;;;2.60;;
83282;SDS011;73190;50.780;5.658;2024-02-14T05:13:57;7.05;;;3.02;;
83282;SDS011;73190;50.780;5.658;2024-02-14T05:16:27;3.98;;;2.60;;
83282;SDS011;73190;50.780;5.658;2024-02-14T05:18:54;5.95;;;2.87;;
83282;SDS011;73190;50.780;5.658;2024-02-14T05:21:22;4.78;;;2.67;;
83282;SDS011;73190;50.780;5.658;2024-02-14T05:23:49;3.98;;;2.62;;
83282;SDS011;73190;50.780;5.658;2024-02-14T05:26:17;6.12;;;2.95;;
83282;SDS011;73190;50.780;5.658;2024-02-14T05:28:44;5.65;;;2.70;;
83282;SDS011;73190;50.780;5.658;2024-02-14T05:31:12;7.42;;;3.15;;
83282;SDS011;73190;50.780;5.658;2024-02-14T05:33:39;4.62;;;2.92;;
83282;SDS011;73190;50.780;5.658;2024-02-14T05:36:07;7.12;;;2.77;;
83282;SDS011;73190;50.780;5.658;2024-02-14T05:38:34;6.53;;;3.20;;
83282;SDS011;73190;50.780;5.658;2024-02-14T05:41:02;7.67;;;3.22;;
83282;SDS011;73190;50.780;5.658;2024-02-14T05:43:30;6.03;;;2.80;;
83282;SDS011;73190;50.780;5.658;2024-02-14T05:45:57;8.28;;;2.90;;
83282;SDS011;73190;50.780;5.658;2024-02-14T05:48:26;5.60;;;2.70;;
83282;SDS011;73190;50.780;5.658;2024-02-14T05:50:53;7.62;;;3.33;;
83282;SDS011;73190;50.780;5.658;2024-02-14T05:53:21;6.00;;;3.05;;
83282;SDS011;73190;50.780;5.658;2024-02-14T05:55:49;4.72;;;2.75;;
83282;SDS011;73190;50.780;5.658;2024-02-14T05:58:16;4.83;;;2.70;;
83282;SDS011;73190;50.780;5.658;2024-02-14T06:00:44;5.78;;;3.22;;
83282;SDS011;73190;50.780;5.658;2024-02-14T06:03:12;4.95;;;2.77;;
83282;SDS011;73190;50.780;5.658;2024-02-14T06:05:40;5.53;;;2.40;;
83282;SDS011;73190;50.780;5.658;2024-02-14T06:08:07;4.40;;;2.72;;
83282;SDS011;73190;50.780;5.658;2024-02-14T06:10:35;5.12;;;2.35;;
83282;SDS011;73190;50.780;5.658;2024-02-14T06:13:04;5.12;;;2.35;;
83282;SDS011;73190;50.780;5.658;2024-02-14T06:15:32;4.00;;;2.22;;
83282;SDS011;73190;50.780;5.658;2024-02-14T06:17:59;5.40;;;2.65;;
83282;SDS011;73190;50.780;5.658;2024-02-14T06:20:27;7.85;;;3.80;;
83282;SDS011;73190;50.780;5.658;2024-02-14T06:22:54;6.12;;;2.87;;
83282;SDS011;73190;50.780;5.658;2024-02-14T06:25:22;4.97;;;2.40;;
83282;SDS011;73190;50.780;5.658;2024-02-14T06:27:49;4.75;;;2.27;;
83282;SDS011;73190;50.780;5.658;2024-02-14T06:30:17;3.75;;;2.50;;
83282;SDS011;73190;50.780;5.658;2024-02-14T06:32:44;4.35;;;2.30;;
83282;SDS011;73190;50.780;5.658;2024-02-14T06:35:12;5.35;;;2.90;;
83282;SDS011;73190;50.780;5.658;2024-02-14T06:37:41;5.80;;;3.02;;
83282;SDS011;73190;50.780;5.658;2024-02-14T06:40:08;6.12;;;2.58;;
83282;SDS011;73190;50.780;5.658;2024-02-14T06:42:36;5.03;;;2.72;;
83282;SDS011;73190;50.780;5.658;2024-02-14T06:45:04;4.33;;;2.47;;
83282;SDS011;73190;50.780;5.658;2024-02-14T06:47:32;7.55;;;3.00;;
83282;SDS011;73190;50.780;5.658;2024-02-14T06:50:00;8.60;;;2.70;;
83282;SDS011;73190;50.780;5.658;2024-02-14T06:52:27;6.90;;;3.10;;
83282;SDS011;73190;50.780;5.658;2024-02-14T06:54:55;5.03;;;3.02;;
83282;SDS011;73190;50.780;5.658;2024-02-14T06:57:22;5.65;;;2.83;;
83282;SDS011;73190;50.780;5.658;2024-02-14T06:59:50;3.90;;;2.98;;
83282;SDS011;73190;50.780;5.658;2024-02-14T07:02:18;5.50;;;2.92;;
83282;SDS011;73190;50.780;5.658;2024-02-14T07:04:46;7.15;;;2.80;;
83282;SDS011;73190;50.780;5.658;2024-02-14T07:07:15;3.65;;;2.52;;
83282;SDS011;73190;50.780;5.658;2024-02-14T07:09:42;3.83;;;2.90;;
83282;SDS011;73190;50.780;5.658;2024-02-14T07:12:10;5.58;;;3.12;;
83282;SDS011;73190;50.780;5.658;2024-02-14T07:14:37;4.40;;;2.77;;
83282;SDS011;73190;50.780;5.658;2024-02-14T07:17:05;6.40;;;3.22;;
83282;SDS011;73190;50.780;5.658;2024-02-14T07:19:32;4.85;;;2.67;;
83282;SDS011;73190;50.780;5.658;2024-02-14T07:22:00;7.12;;;2.80;;
83282;SDS011;73190;50.780;5.658;2024-02-14T07:24:28;6.35;;;2.70;;
83282;SDS011;73190;50.780;5.658;2024-02-14T07:26:55;5.72;;;2.62;;
83282;SDS011;73190;50.780;5.658;2024-02-14T07:29:22;4.50;;;2.60;;
83282;SDS011;73190;50.780;5.658;2024-02-14T07:31:51;6.17;;;2.70;;
83282;SDS011;73190;50.780;5.658;2024-02-14T07:34:18;5.00;;;2.80;;
83282;SDS011;73190;50.780;5.658;2024-02-14T07:36:46;4.62;;;2.22;;
83282;SDS011;73190;50.780;5.658;2024-02-14T07:39:13;6.42;;;2.60;;
83282;SDS011;73190;50.780;5.658;2024-02-14T07:41:41;6.35;;;2.30;;
83282;SDS011;73190;50.780;5.658;2024-02-14T07:44:08;4.08;;;2.40;;
83282;SDS011;73190;50.780;5.658;2024-02-14T07:46:36;6.87;;;2.50;;
83282;SDS011;73190;50.780;5.658;2024-02-14T07:49:04;6.53;;;2.40;;
83282;SDS011;73190;50.780;5.658;2024-02-14T07:51:33;5.33;;;2.63;;
83282;SDS011;73190;50.780;5.658;2024-02-14T07:54:02;5.10;;;2.05;;
83282;SDS011;73190;50.780;5.658;2024-02-14T07:56:30;4.47;;;2.05;;
83282;SDS011;73190;50.780;5.658;2024-02-14T07:58:58;4.03;;;2.10;;
83282;SDS011;73190;50.780;5.658;2024-02-14T08:01:25;4.83;;;2.08;;
83282;SDS011;73190;50.780;5.658;2024-02-14T08:03:54;4.33;;;2.02;;
83282;SDS011;73190;50.780;5.658;2024-02-14T08:06:21;3.75;;;2.00;;
83282;SDS011;73190;50.780;5.658;2024-02-14T08:08:49;7.17;;;2.30;;
83282;SDS011;73190;50.780;5.658;2024-02-14T08:11:18;8.40;;;2.23;;
83282;SDS011;73190;50.780;5.658;2024-02-14T08:13:46;3.33;;;2.10;;
83282;SDS011;73190;50.780;5.658;2024-02-14T08:16:13;5.87;;;2.27;;
83282;SDS011;73190;50.780;5.658;2024-02-14T08:18:41;6.55;;;2.08;;
83282;SDS011;73190;50.780;5.658;2024-02-14T08:21:10;3.15;;;1.82;;
83282;SDS011;73190;50.780;5.658;2024-02-14T08:23:37;5.10;;;2.37;;
83282;SDS011;73190;50.780;5.658;2024-02-14T08:26:07;3.92;;;1.85;;
83282;SDS011;73190;50.780;5.658;2024-02-14T08:28:39;5.13;;;2.27;;
83282;SDS011;73190;50.780;5.658;2024-02-14T08:31:10;4.75;;;1.57;;
83282;SDS011;73190;50.780;5.658;2024-02-14T08:33:38;6.03;;;2.00;;
83282;SDS011;73190;50.780;5.658;2024-02-14T08:36:06;4.80;;;2.02;;
83282;SDS011;73190;50.780;5.658;2024-02-14T08:38:33;6.50;;;2.35;;
83282;SDS011;73190;50.780;5.658;2024-02-14T08:41:01;7.33;;;1.82;;
83282;SDS011;73190;50.780;5.658;2024-02-14T08:43:29;7.25;;;2.33;;
83282;SDS011;73190;50.780;5.658;2024-02-14T08:45:57;4.97;;;2.50;;
83282;SDS011;73190;50.780;5.658;2024-02-14T08:48:25;6.30;;;1.85;;
83282;SDS011;73190;50.780;5.658;2024-02-14T08:50:53;3.95;;;2.12;;
83282;SDS011;73190;50.780;5.658;2024-02-14T08:53:20;6.37;;;2.40;;
83282;SDS011;73190;50.780;5.658;2024-02-14T08:55:48;4.03;;;1.92;;
83282;SDS011;73190;50.780;5.658;2024-02-14T08:58:15;5.55;;;1.67;;
83282;SDS011;73190;50.780;5.658;2024-02-14T09:00:43;5.90;;;2.00;;
83282;SDS011;73190;50.780;5.658;2024-02-14T09:03:10;3.42;;;1.75;;
83282;SDS011;73190;50.780;5.658;2024-02-14T09:05:38;5.80;;;2.05;;
83282;SDS011;73190;50.780;5.658;2024-02-14T09:08:06;5.30;;;1.90;;
83282;SDS011;73190;50.780;5.658;2024-02-14T09:10:33;4.70;;;2.00;;
83282;SDS011;73190;50.780;5.658;2024-02-14T09:13:01;5.33;;;1.80;;
83282;SDS011;73190;50.780;5.658;2024-02-14T09:15:29;5.20;;;2.12;;
83282;SDS011;73190;50.780;5.658;2024-02-14T09:17:58;3.67;;;1.50;;
83282;SDS011;73190;50.780;5.658;2024-02-14T09:20:26;5.28;;;1.67;;
83282;SDS011;73190;50.780;5.658;2024-02-14T09:22:54;3.62;;;1.60;;
83282;SDS011;73190;50.780;5.658;2024-02-14T09:25:24;4.87;;;1.60;;
83282;SDS011;73190;50.780;5.658;2024-02-14T09:27:51;3.80;;;1.52;;
83282;SDS011;73190;50.780;5.658;2024-02-14T09:30:19;3.92;;;1.70;;
83282;SDS011;73190;50.780;5.658;2024-02-14T09:32:47;2.98;;;1.20;;
83282;SDS011;73190;50.780;5.658;2024-02-14T09:35:16;5.37;;;1.60;;
83282;SDS011;73190;50.780;5.658;2024-02-14T09:37:44;5.00;;;1.45;;
83282;SDS011;73190;50.780;5.658;2024-02-14T09:40:11;3.58;;;1.47;;
83282;SDS011;73190;50.780;5.658;2024-02-14T09:42:44;6.53;;;2.10;;
83282;SDS011;73190;50.780;5.658;2024-02-14T09:45:13;4.45;;;1.20;;
83282;SDS011;73190;50.780;5.658;2024-02-14T09:47:41;2.80;;;1.20;;
83282;SDS011;73190;50.780;5.658;2024-02-14T09:50:09;4.05;;;1.20;;
83282;SDS011;73190;50.780;5.658;2024-02-14T09:52:38;3.98;;;1.10;;
83282;SDS011;73190;50.780;5.658;2024-02-14T09:55:07;5.00;;;1.30;;
83282;SDS011;73190;50.780;5.658;2024-02-14T09:57:38;4.72;;;1.27;;
83282;SDS011;73190;50.780;5.658;2024-02-14T10:00:12;5.90;;;1.57;;
83282;SDS011;73190;50.780;5.658;2024-02-14T10:02:43;4.80;;;1.42;;
83282;SDS011;73190;50.780;5.658;2024-02-14T10:05:11;3.70;;;1.32;;
83282;SDS011;73190;50.780;5.658;2024-02-14T10:07:43;4.00;;;1.40;;
83282;SDS011;73190;50.780;5.658;2024-02-14T10:10:12;7.28;;;1.40;;
83282;SDS011;73190;50.780;5.658;2024-02-14T10:12:40;4.92;;;1.50;;
83282;SDS011;73190;50.780;5.658;2024-02-14T10:15:09;5.50;;;1.50;;
83282;SDS011;73190;50.780;5.658;2024-02-14T10:17:38;4.85;;;1.60;;
83282;SDS011;73190;50.780;5.658;2024-02-14T10:20:09;5.58;;;1.52;;
83282;SDS011;73190;50.780;5.658;2024-02-14T10:22:38;7.12;;;2.17;;
83282;SDS011;73190;50.780;5.658;2024-02-14T10:25:06;6.50;;;1.22;;
83282;SDS011;73190;50.780;5.658;2024-02-14T10:27:38;2.10;;;1.10;;
83282;SDS011;73190;50.780;5.658;2024-02-14T10:30:06;3.35;;;1.52;;
83282;SDS011;73190;50.780;5.658;2024-02-14T10:32:35;5.03;;;1.62;;
83282;SDS011;73190;50.780;5.658;2024-02-14T10:35:07;5.85;;;1.77;;
83282;SDS011;73190;50.780;5.658;2024-02-14T10:37:36;4.10;;;1.20;;
83282;SDS011;73190;50.780;5.658;2024-02-14T10:40:04;3.87;;;1.40;;
83282;SDS011;73190;50.780;5.658;2024-02-14T10:42:34;2.90;;;1.15;;
83282;SDS011;73190;50.780;5.658;2024-02-14T10:45:02;5.40;;;1.20;;
83282;SDS011;73190;50.780;5.658;2024-02-14T10:47:31;5.03;;;1.30;;
83282;SDS011;73190;50.780;5.658;2024-02-14T10:50:05;2.98;;;1.12;;
83282;SDS011;73190;50.780;5.658;2024-02-14T10:52:35;4.60;;;1.15;;
83282;SDS011;73190;50.780;5.658;2024-02-14T10:55:03;3.20;;;0.90;;
83282;SDS011;73190;50.780;5.658;2024-02-14T10:57:36;3.80;;;0.90;;
83282;SDS011;73190;50.780;5.658;2024-02-14T11:00:02;2.27;;;0.85;;
83282;SDS011;73190;50.780;5.658;2024-02-14T11:02:32;4.37;;;0.72;;
83282;SDS011;73190;50.780;5.658;2024-02-14T11:05:01;3.22;;;1.05;;
83282;SDS011;73190;50.780;5.658;2024-02-14T11:07:30;3.12;;;1.30;;
83282;SDS011;73190;50.780;5.658;2024-02-14T11:10:07;2.33;;;0.80;;
83282;SDS011;73190;50.780;5.658;2024-02-14T11:12:35;2.10;;;0.90;;
83282;SDS011;73190;50.780;5.658;2024-02-14T11:15:20;2.33;;;0.98;;
83282;SDS011;73190;50.780;5.658;2024-02-14T11:17:50;0.80;;;0.57;;
83282;SDS011;73190;50.780;5.658;2024-02-14T11:20:18;7.72;;;0.80;;
83282;SDS011;73190;50.780;5.658;2024-02-14T11:23:01;3.90;;;1.20;;
83282;SDS011;73190;50.780;5.658;2024-02-14T11:25:27;2.15;;;0.85;;
83282;SDS011;73190;50.780;5.658;2024-02-14T11:28:47;1.12;;;0.50;;
83282;SDS011;73190;50.780;5.658;2024-02-14T11:30:41;2.70;;;0.70;;
83282;SDS011;73190;50.780;5.658;2024-02-14T11:33:13;2.72;;;0.70;;
83282;SDS011;73190;50.780;5.658;2024-02-14T11:35:42;2.45;;;0.75;;
83282;SDS011;73190;50.780;5.658;2024-02-14T11:38:10;1.27;;;0.60;;
83282;SDS011;73190;50.780;5.658;2024-02-14T11:40:38;1.20;;;0.70;;
83282;SDS011;73190;50.780;5.658;2024-02-14T11:43:12;2.90;;;0.65;;
83282;SDS011;73190;50.780;5.658;2024-02-14T11:45:41;1.90;;;0.70;;
83282;SDS011;73190;50.780;5.658;2024-02-14T11:48:09;1.77;;;0.70;;
83282;SDS011;73190;50.780;5.658;2024-02-14T11:50:41;1.75;;;0.80;;
83282;SDS011;73190;50.780;5.658;2024-02-14T11:53:10;1.42;;;0.72;;
83282;SDS011;73190;50.780;5.658;2024-02-14T11:55:39;1.82;;;0.78;;
83282;SDS011;73190;50.780;5.658;2024-02-14T11:58:11;1.77;;;0.70;;
83282;SDS011;73190;50.780;5.658;2024-02-14T12:00:45;1.30;;;0.80;;
83282;SDS011;73190;50.780;5.658;2024-02-14T12:03:12;2.35;;;0.70;;
83282;SDS011;73190;50.780;5.658;2024-02-14T12:05:41;3.83;;;1.10;;
83282;SDS011;73190;50.780;5.658;2024-02-14T12:08:09;3.00;;;1.07;;
83282;SDS011;73190;50.780;5.658;2024-02-14T12:10:37;5.45;;;1.50;;
83282;SDS011;73190;50.780;5.658;2024-02-14T12:13:11;4.58;;;1.35;;
83282;SDS011;73190;50.780;5.658;2024-02-14T12:15:40;3.87;;;1.60;;
83282;SDS011;73190;50.780;5.658;2024-02-14T12:18:09;4.10;;;1.60;;
83282;SDS011;73190;50.780;5.658;2024-02-14T12:20:37;3.75;;;1.60;;
83282;SDS011;73190;50.780;5.658;2024-02-14T12:23:05;4.08;;;1.57;;
83282;SDS011;73190;50.780;5.658;2024-02-14T12:25:33;10.13;;;6.20;;
83282;SDS011;73190;50.780;5.658;2024-02-14T12:28:01;4.50;;;1.55;;
83282;SDS011;73190;50.780;5.658;2024-02-14T12:30:50;5.97;;;4.72;;
83282;SDS011;73190;50.780;5.658;2024-02-14T12:33:02;2.50;;;0.82;;
83282;SDS011;73190;50.780;5.658;2024-02-14T12:35:33;7.20;;;4.80;;
83282;SDS011;73190;50.780;5.658;2024-02-14T12:38:06;2.85;;;1.20;;
83282;SDS011;73190;50.780;5.658;2024-02-14T12:40:35;2.60;;;0.80;;
83282;SDS011;73190;50.780;5.658;2024-02-14T12:43:03;1.95;;;0.60;;
83282;SDS011;73190;50.780;5.658;2024-02-14T12:45:32;1.67;;;0.40;;
83282;SDS011;73190;50.780;5.658;2024-02-14T12:48:01;2.05;;;0.60;;
83282;SDS011;73190;50.780;5.658;2024-02-14T12:50:29;1.20;;;0.80;;
83282;SDS011;73190;50.780;5.658;2024-02-14T12:52:57;2.52;;;0.95;;
83282;SDS011;73190;50.780;5.658;2024-02-14T12:55:25;3.85;;;0.50;;
83282;SDS011;73190;50.780;5.658;2024-02-14T12:57:57;2.45;;;1.00;;
83282;SDS011;73190;50.780;5.658;2024-02-14T13:00:25;1.40;;;1.20;;
83282;SDS011;73190;50.780;5.658;2024-02-14T13:02:52;1.57;;;1.40;;
83282;SDS011;73190;50.780;5.658;2024-02-14T13:05:20;2.45;;;1.00;;
83282;SDS011;73190;50.780;5.658;2024-02-14T13:07:47;1.62;;;0.47;;
83282;SDS011;73190;50.780;5.658;2024-02-14T13:10:17;4.30;;;2.55;;
83282;SDS011;73190;50.780;5.658;2024-02-14T13:12:44;1.07;;;0.60;;
83282;SDS011;73190;50.780;5.658;2024-02-14T13:15:12;1.40;;;0.95;;
83282;SDS011;73190;50.780;5.658;2024-02-14T13:17:40;1.95;;;0.70;;
83282;SDS011;73190;50.780;5.658;2024-02-14T13:20:07;3.55;;;1.42;;
83282;SDS011;73190;50.780;5.658;2024-02-14T13:22:37;2.60;;;0.70;;
83282;SDS011;73190;50.780;5.658;2024-02-14T13:25:05;3.95;;;1.05;;
83282;SDS011;73190;50.780;5.658;2024-02-14T13:27:34;1.22;;;0.68;;
83282;SDS011;73190;50.780;5.658;2024-02-14T13:30:02;2.05;;;0.90;;
83282;SDS011;73190;50.780;5.658;2024-02-14T13:32:30;1.42;;;1.00;;
83282;SDS011;73190;50.780;5.658;2024-02-14T13:34:57;1.47;;;0.75;;
83282;SDS011;73190;50.780;5.658;2024-02-14T13:37:25;1.30;;;0.57;;
83282;SDS011;73190;50.780;5.658;2024-02-14T13:39:53;0.90;;;0.40;;
83282;SDS011;73190;50.780;5.658;2024-02-14T13:42:20;1.02;;;0.40;;
83282;SDS011;73190;50.780;5.658;2024-02-14T13:44:48;1.00;;;0.60;;
83282;SDS011;73190;50.780;5.658;2024-02-14T13:47:17;1.25;;;0.50;;
83282;SDS011;73190;50.780;5.658;2024-02-14T13:49:45;1.62;;;0.80;;
83282;SDS011;73190;50.780;5.658;2024-02-14T13:52:12;2.62;;;0.55;;
83282;SDS011;73190;50.780;5.658;2024-02-14T13:54:41;1.80;;;0.60;;
83282;SDS011;73190;50.780;5.658;2024-02-14T13:57:09;2.83;;;0.60;;
83282;SDS011;73190;50.780;5.658;2024-02-14T13:59:37;1.65;;;0.55;;
83282;SDS011;73190;50.780;5.658;2024-02-14T14:02:05;1.50;;;0.80;;
83282;SDS011;73190;50.780;5.658;2024-02-14T14:04:32;3.27;;;0.68;;
83282;SDS011;73190;50.780;5.658;2024-02-14T14:07:00;2.20;;;0.80;;
83282;SDS011;73190;50.780;5.658;2024-02-14T14:09:29;2.77;;;0.83;;
83282;SDS011;73190;50.780;5.658;2024-02-14T14:11:58;2.12;;;0.80;;
83282;SDS011;73190;50.780;5.658;2024-02-14T14:14:26;1.15;;;0.70;;
83282;SDS011;73190;50.780;5.658;2024-02-14T14:16:54;2.52;;;1.30;;
83282;SDS011;73190;50.780;5.658;2024-02-14T14:19:23;2.22;;;1.10;;
83282;SDS011;73190;50.780;5.658;2024-02-14T14:21:50;2.90;;;1.50;;
83282;SDS011;73190;50.780;5.658;2024-02-14T14:24:18;2.52;;;1.42;;
83282;SDS011;73190;50.780;5.658;2024-02-14T14:26:46;2.15;;;1.30;;
83282;SDS011;73190;50.780;5.658;2024-02-14T14:29:13;3.08;;;1.30;;
83282;SDS011;73190;50.780;5.658;2024-02-14T14:31:41;4.55;;;1.20;;
83282;SDS011;73190;50.780;5.658;2024-02-14T14:34:08;2.00;;;1.12;;
83282;SDS011;73190;50.780;5.658;2024-02-14T14:36:37;2.20;;;1.25;;
83282;SDS011;73190;50.780;5.658;2024-02-14T14:39:06;2.75;;;1.30;;
83282;SDS011;73190;50.780;5.658;2024-02-14T14:41:35;3.72;;;1.30;;
83282;SDS011;73190;50.780;5.658;2024-02-14T14:44:04;4.70;;;1.42;;
83282;SDS011;73190;50.780;5.658;2024-02-14T14:46:31;2.35;;;1.12;;
83282;SDS011;73190;50.780;5.658;2024-02-14T14:49:01;2.47;;;1.50;;
83282;SDS011;73190;50.780;5.658;2024-02-14T14:51:29;2.72;;;1.45;;
83282;SDS011;73190;50.780;5.658;2024-02-14T14:53:56;4.22;;;1.60;;